Time;durP1;ratioP1;P1;durP2;ratioP2;P2;SDS_P1;SDS_P2;PMS_P1;PMS_P2;Temp;Humidity;BMP_temperature;BMP_pressure;BME280_temperature;BME280_humidity;BME280_pressure;Samples;Min_cycle;Max_cycle;Signal;HPM_P1;HPM_P2
2022/05/09 00:02:20;;;;;;;10.40;4.38;;;9.20;99.90;;;;;;5064435;28;20218;-82
2022/05/09 00:04:49;;;;;;;14.98;5.45;;;9.20;99.90;;;;;;5076934;28;20625;-81
2022/05/09 00:07:16;;;;;;;12.80;5.47;;;9.20;99.90;;;;;;5064902;28;20219;-81
2022/05/09 00:09:43;;;;;;;19.48;5.90;;;9.20;99.90;;;;;;5065342;28;20285;-81
2022/05/09 00:12:10;;;;;;;9.70;5.57;;;9.20;99.90;;;;;;5072757;28;20200;-81
2022/05/09 00:14:37;;;;;;;14.10;4.80;;;9.20;99.90;;;;;;5076113;28;20259;-81
2022/05/09 00:17:05;;;;;;;10.23;4.25;;;9.20;99.90;;;;;;5079086;28;20199;-80
2022/05/09 00:19:32;;;;;;;14.30;4.97;;;9.30;99.90;;;;;;5081401;28;20183;-80
2022/05/09 00:22:00;;;;;;;14.32;6.53;;;9.30;99.90;;;;;;5077324;28;20219;-79
2022/05/09 00:24:27;;;;;;;13.38;5.28;;;9.30;99.90;;;;;;5075883;28;20287;-80
2022/05/09 00:26:54;;;;;;;9.65;5.55;;;9.30;99.90;;;;;;5070838;28;20226;-81
2022/05/09 00:29:23;;;;;;;13.45;6.18;;;9.20;99.90;;;;;;5072855;28;20198;-82
2022/05/09 00:31:51;;;;;;;10.60;5.93;;;9.20;99.90;;;;;;5070358;28;20597;-82
2022/05/09 00:34:21;;;;;;;13.35;5.78;;;9.20;99.90;;;;;;5081986;28;20211;-81
2022/05/09 00:36:49;;;;;;;13.02;4.88;;;9.30;99.90;;;;;;5081359;28;20252;-81
2022/05/09 00:39:17;;;;;;;13.07;5.90;;;9.30;99.90;;;;;;5074442;28;20200;-81
2022/05/09 00:41:45;;;;;;;13.25;4.85;;;9.30;99.90;;;;;;5082478;28;20233;-82
2022/05/09 00:44:14;;;;;;;15.10;5.55;;;9.20;99.90;;;;;;5073801;28;20187;-82
2022/05/09 00:46:45;;;;;;;10.07;4.97;;;9.20;99.90;;;;;;5078540;28;20381;-82
2022/05/09 00:49:18;;;;;;;12.52;5.90;;;9.20;99.90;;;;;;5079015;28;20213;-82
2022/05/09 00:51:48;;;;;;;17.13;5.95;;;9.20;99.90;;;;;;5062147;28;20204;-83
2022/05/09 00:54:17;;;;;;;13.00;5.80;;;9.20;99.90;;;;;;5073727;28;20314;-81
2022/05/09 00:56:51;;;;;;;12.75;5.90;;;9.20;99.90;;;;;;5070170;28;20302;-81
2022/05/09 00:59:19;;;;;;;18.85;6.57;;;9.10;99.90;;;;;;5073226;28;20239;-83
2022/05/09 01:01:48;;;;;;;10.10;4.50;;;9.00;99.90;;;;;;5071671;28;20297;-81
2022/05/09 01:04:19;;;;;;;27.77;6.15;;;9.00;99.90;;;;;;5066084;28;20256;-80
2022/05/09 01:06:46;;;;;;;6.93;3.75;;;9.00;99.90;;;;;;5067648;28;20235;-82
2022/05/09 01:09:13;;;;;;;17.55;7.13;;;9.00;99.90;;;;;;5068177;28;20358;-81
2022/05/09 01:11:44;;;;;;;14.25;5.95;;;9.00;99.90;;;;;;5066197;28;20206;-82
2022/05/09 01:14:16;;;;;;;18.08;5.70;;;9.00;99.90;;;;;;5069200;28;20219;-82
2022/05/09 01:16:43;;;;;;;9.95;5.32;;;9.00;99.90;;;;;;5076965;28;20218;-81
2022/05/09 01:19:27;;;;;;;13.52;6.25;;;9.10;99.90;;;;;;5078135;28;20279;-81
2022/05/09 01:21:56;;;;;;;10.18;5.30;;;9.00;99.90;;;;;;5070911;28;20207;-82
2022/05/09 01:24:25;;;;;;;14.93;5.85;;;8.90;99.90;;;;;;5061672;28;20577;-80
2022/05/09 01:26:52;;;;;;;11.52;5.47;;;9.00;99.90;;;;;;5077392;28;20291;-81
2022/05/09 01:29:25;;;;;;;18.80;8.25;;;9.00;99.90;;;;;;5070297;28;20276;-82
2022/05/09 01:31:55;;;;;;;16.33;7.32;;;8.90;99.90;;;;;;5078000;28;20258;-82
2022/05/09 01:34:21;;;;;;;19.23;6.00;;;8.90;99.90;;;;;;5074031;28;20221;-80
2022/05/09 01:36:55;;;;;;;12.80;6.60;;;8.90;99.90;;;;;;5083681;28;20223;-80
2022/05/09 01:39:24;;;;;;;15.00;6.97;;;8.80;99.90;;;;;;5061603;28;20318;-82
2022/05/09 01:41:51;;;;;;;16.92;6.75;;;8.80;99.90;;;;;;5068468;28;20293;-83
2022/05/09 01:44:19;;;;;;;13.35;6.82;;;8.80;99.90;;;;;;5064774;28;20236;-83
2022/05/09 01:49:34;;;;;;;16.80;7.82;;;8.80;99.90;;;;;;5056197;28;20620;-82
2022/05/09 01:52:04;;;;;;;13.93;7.50;;;8.70;99.90;;;;;;5075486;28;20217;-82
2022/05/09 01:54:33;;;;;;;13.07;7.05;;;8.70;99.90;;;;;;5069386;28;20230;-81
2022/05/09 01:57:00;;;;;;;16.50;7.55;;;8.70;99.90;;;;;;5071161;28;20253;-82
2022/05/09 01:59:27;;;;;;;19.45;7.47;;;8.70;99.90;;;;;;5068991;28;20228;-81
2022/05/09 02:01:58;;;;;;;11.73;7.25;;;8.60;99.90;;;;;;5062963;28;20238;-82
2022/05/09 02:04:25;;;;;;;15.98;7.25;;;8.60;99.90;;;;;;5069364;28;20276;-82
2022/05/09 02:06:53;;;;;;;18.15;7.53;;;8.50;99.90;;;;;;5078993;28;20322;-82
2022/05/09 02:09:20;;;;;;;14.57;8.57;;;8.50;99.90;;;;;;5058726;28;20203;-83
2022/05/09 02:11:48;;;;;;;17.45;7.50;;;8.50;99.90;;;;;;5062892;28;20203;-82
2022/05/09 02:14:15;;;;;;;13.43;7.10;;;8.50;99.90;;;;;;5064273;28;20226;-82
2022/05/09 02:16:42;;;;;;;26.42;9.07;;;8.50;99.90;;;;;;5065721;28;20257;-82
2022/05/09 02:19:09;;;;;;;16.00;7.10;;;8.50;99.90;;;;;;5068466;28;20253;-81
2022/05/09 02:21:36;;;;;;;17.98;8.85;;;8.50;99.90;;;;;;5065302;28;20210;-81
2022/05/09 02:24:03;;;;;;;17.63;6.85;;;8.40;99.90;;;;;;5062942;28;20244;-81
2022/05/09 02:26:31;;;;;;;12.35;6.90;;;8.40;99.90;;;;;;5057822;28;20295;-82
2022/05/09 02:28:59;;;;;;;19.52;7.50;;;8.50;99.90;;;;;;5059201;28;20211;-82
2022/05/09 02:31:26;;;;;;;12.70;7.97;;;8.40;99.90;;;;;;5062038;28;20278;-83
2022/05/09 02:33:53;;;;;;;22.73;7.30;;;8.40;99.90;;;;;;5066299;28;20226;-83
2022/05/09 02:36:20;;;;;;;12.85;7.88;;;8.50;99.90;;;;;;5062683;28;20676;-82
2022/05/09 02:38:47;;;;;;;22.45;7.47;;;8.50;99.90;;;;;;5069244;28;20256;-82
2022/05/09 02:41:14;;;;;;;17.58;8.60;;;8.40;99.90;;;;;;5062459;28;20270;-83
2022/05/09 02:43:41;;;;;;;22.83;10.60;;;8.40;99.90;;;;;;5064630;28;20234;-82
2022/05/09 02:46:09;;;;;;;19.42;9.13;;;8.40;99.90;;;;;;5062714;28;20244;-82
2022/05/09 02:48:37;;;;;;;16.15;7.28;;;8.40;99.90;;;;;;5062748;28;20210;-83
2022/05/09 02:51:05;;;;;;;16.17;8.10;;;8.40;99.90;;;;;;5062683;28;20209;-82
2022/05/09 02:53:32;;;;;;;13.30;7.20;;;8.30;99.90;;;;;;5062341;28;20250;-82
2022/05/09 02:55:59;;;;;;;17.63;7.40;;;8.30;99.90;;;;;;5062698;28;20249;-82
2022/05/09 02:58:26;;;;;;;22.70;8.95;;;8.30;99.90;;;;;;5062256;28;20256;-82
2022/05/09 03:00:53;;;;;;;17.70;7.97;;;8.20;99.90;;;;;;5061596;28;20266;-82
2022/05/09 03:06:06;;;;;;;10.77;6.90;;;8.20;99.90;;;;;;5073447;28;20244;-82
2022/05/09 03:08:33;;;;;;;15.57;8.55;;;8.20;99.90;;;;;;5068808;28;20211;-82
2022/05/09 03:11:00;;;;;;;15.55;7.97;;;8.10;99.90;;;;;;5065658;28;20263;-80
2022/05/09 03:13:27;;;;;;;15.70;8.25;;;8.20;99.90;;;;;;5078520;28;20222;-80
2022/05/09 03:15:54;;;;;;;16.73;8.70;;;8.20;99.90;;;;;;5076672;28;20208;-80
2022/05/09 03:18:25;;;;;;;18.45;9.30;;;8.10;99.90;;;;;;5075512;28;20252;-81
2022/05/09 03:20:52;;;;;;;16.98;8.65;;;8.20;99.90;;;;;;5078751;28;20192;-81
2022/05/09 03:23:20;;;;;;;14.00;8.13;;;8.20;99.90;;;;;;5077997;28;20185;-81
2022/05/09 03:25:47;;;;;;;15.05;8.00;;;8.20;99.90;;;;;;5069322;28;20229;-81
2022/05/09 03:28:18;;;;;;;15.63;8.25;;;8.20;99.90;;;;;;5060221;28;20206;-82
2022/05/09 03:30:46;;;;;;;12.30;7.40;;;8.20;99.90;;;;;;5062003;28;20204;-81
2022/05/09 03:33:14;;;;;;;12.30;7.15;;;8.20;99.90;;;;;;5061437;28;20216;-82
2022/05/09 03:35:42;;;;;;;14.73;8.60;;;8.20;99.90;;;;;;5069985;28;20613;-81
2022/05/09 03:38:11;;;;;;;19.30;7.70;;;8.20;99.90;;;;;;5069332;28;20216;-82
2022/05/09 03:40:38;;;;;;;18.10;8.82;;;8.30;99.90;;;;;;5061234;28;20205;-81
2022/05/09 03:43:06;;;;;;;16.50;8.77;;;8.30;99.90;;;;;;5069380;28;20234;-81
2022/05/09 03:45:33;;;;;;;10.75;6.80;;;8.30;99.90;;;;;;5066268;28;20330;-81
2022/05/09 03:48:00;;;;;;;16.27;8.38;;;8.30;99.90;;;;;;5064039;28;20240;-81
2022/05/09 03:50:28;;;;;;;20.60;10.82;;;8.30;99.90;;;;;;5061208;28;20210;-82
2022/05/09 03:52:56;;;;;;;12.65;8.32;;;8.30;99.90;;;;;;5066261;28;20301;-83
2022/05/09 03:55:23;;;;;;;23.10;9.75;;;8.30;99.90;;;;;;5081110;28;20221;-81
2022/05/09 03:57:52;;;;;;;17.60;7.32;;;8.30;99.90;;;;;;5085625;28;20233;-80
2022/05/09 04:00:23;;;;;;;18.45;9.98;;;8.40;99.90;;;;;;5074979;28;20243;-80
2022/05/09 04:02:50;;;;;;;14.95;7.15;;;8.40;99.90;;;;;;5071779;28;20205;-81
2022/05/09 04:05:17;;;;;;;10.65;7.05;;;8.50;99.90;;;;;;5065731;28;20238;-82
2022/05/09 04:07:45;;;;;;;15.80;7.55;;;8.50;99.90;;;;;;5070045;28;20711;-82
2022/05/09 04:10:15;;;;;;;20.13;9.05;;;8.50;99.90;;;;;;5064698;28;20206;-82
2022/05/09 04:12:42;;;;;;;12.10;8.00;;;8.50;99.90;;;;;;5065302;28;20294;-81
2022/05/09 04:17:56;;;;;;;13.85;7.53;;;8.70;99.90;;;;;;5065901;28;20675;-82
2022/05/09 04:20:24;;;;;;;16.13;7.57;;;8.90;99.90;;;;;;5064347;28;20209;-81
2022/05/09 04:22:52;;;;;;;22.77;9.15;;;8.70;99.90;;;;;;5067101;28;20297;-83
2022/05/09 04:25:22;;;;;;;11.20;7.05;;;8.80;99.90;;;;;;5065243;28;20286;-83
2022/05/09 04:27:49;;;;;;;16.02;7.50;;;8.90;99.90;;;;;;5065119;28;20230;-82
2022/05/09 04:30:16;;;;;;;15.70;7.13;;;8.90;99.90;;;;;;5065915;28;20343;-81
2022/05/09 04:32:43;;;;;;;15.35;7.68;;;9.10;99.90;;;;;;5073434;28;20238;-81
2022/05/09 04:35:17;;;;;;;13.60;7.25;;;9.20;99.90;;;;;;5064959;28;20223;-82
2022/05/09 04:37:47;;;;;;;12.10;8.00;;;9.30;99.90;;;;;;5065308;28;20231;-82
2022/05/09 04:40:14;;;;;;;10.82;6.55;;;9.50;99.90;;;;;;5064179;28;20231;-81
2022/05/09 04:42:43;;;;;;;12.60;6.43;;;9.90;99.90;;;;;;5064987;28;20203;-81
2022/05/09 04:45:11;;;;;;;12.73;5.22;;;10.50;99.90;;;;;;5065286;28;20207;-83
2022/05/09 04:47:39;;;;;;;15.02;6.75;;;11.20;99.90;;;;;;5073880;28;20309;-81
2022/05/09 04:50:07;;;;;;;6.30;5.03;;;12.00;99.90;;;;;;5092900;28;20211;-81
2022/05/09 04:52:34;;;;;;;11.13;6.25;;;12.30;99.90;;;;;;5076351;28;20213;-82
2022/05/09 04:55:01;;;;;;;7.47;4.93;;;13.10;99.90;;;;;;5083303;28;20211;-82
2022/05/09 04:57:30;;;;;;;9.98;5.75;;;13.90;99.90;;;;;;5082973;28;20221;-82
2022/05/09 04:59:58;;;;;;;10.30;4.80;;;14.60;99.90;;;;;;5078191;28;20267;-82
2022/05/09 05:02:25;;;;;;;12.35;5.20;;;15.30;99.90;;;;;;5079421;28;20195;-82
2022/05/09 05:04:52;;;;;;;11.38;4.65;;;16.20;99.20;;;;;;5086730;28;20183;-81
2022/05/09 05:07:19;;;;;;;8.70;4.65;;;16.90;96.00;;;;;;5078927;28;20211;-80
2022/05/09 05:09:46;;;;;;;9.43;5.65;;;17.50;94.50;;;;;;5078771;28;20221;-80
2022/05/09 05:12:13;;;;;;;7.60;4.30;;;18.30;91.80;;;;;;5078889;28;20201;-81
2022/05/09 05:14:40;;;;;;;12.70;5.13;;;18.90;90.10;;;;;;5078507;28;20502;-80
2022/05/09 05:17:08;;;;;;;8.80;4.70;;;19.40;87.20;;;;;;5078510;28;20468;-81
2022/05/09 05:19:37;;;;;;;6.90;4.27;;;19.80;84.50;;;;;;5083323;28;20461;-81
2022/05/09 05:22:05;;;;;;;6.70;4.27;;;20.10;84.10;;;;;;5069876;28;20506;-81
2022/05/09 05:24:34;;;;;;;6.40;4.20;;;20.50;81.50;;;;;;5066689;28;20443;-81
2022/05/09 05:27:02;;;;;;;18.37;5.37;;;20.50;79.70;;;;;;5064945;28;21214;-82
2022/05/09 05:29:28;;;;;;;9.00;4.03;;;20.90;78.30;;;;;;5074024;28;20509;-82
2022/05/09 05:31:55;;;;;;;7.03;4.40;;;21.40;77.10;;;;;;5072235;28;20453;-83
2022/05/09 05:34:24;;;;;;;10.30;5.30;;;21.90;75.70;;;;;;5074454;28;20485;-82
2022/05/09 05:36:51;;;;;;;12.20;4.90;;;22.10;73.90;;;;;;5068820;28;20480;-83
2022/05/09 05:39:18;;;;;;;9.10;3.80;;;22.20;73.30;;;;;;5066762;28;20515;-81
2022/05/09 05:41:46;;;;;;;11.57;4.07;;;22.40;70.40;;;;;;5074632;28;20450;-81
2022/05/09 05:44:13;;;;;;;10.53;5.50;;;22.60;70.80;;;;;;5074650;28;20469;-82
2022/05/09 05:46:41;;;;;;;10.37;4.50;;;22.30;69.80;;;;;;5075642;28;20499;-81
2022/05/09 05:49:08;;;;;;;8.23;4.70;;;22.00;71.40;;;;;;5071202;28;20442;-83
2022/05/09 05:51:37;;;;;;;11.83;5.50;;;22.50;71.00;;;;;;5066003;28;20470;-82
2022/05/09 05:54:04;;;;;;;6.73;4.40;;;23.00;69.50;;;;;;5059456;28;20439;-83
2022/05/09 05:56:31;;;;;;;11.00;5.10;;;23.70;68.50;;;;;;5072014;28;20512;-82
2022/05/09 05:58:58;;;;;;;12.40;4.33;;;23.60;65.70;;;;;;5065339;28;20478;-83
2022/05/09 06:01:25;;;;;;;10.57;4.70;;;23.30;65.90;;;;;;5064300;28;20509;-82
2022/05/09 06:03:52;;;;;;;7.70;3.60;;;23.60;66.40;;;;;;5052970;28;20970;-84
2022/05/09 06:06:19;;;;;;;7.60;4.60;;;23.90;66.20;;;;;;5066251;28;20485;-82
2022/05/09 06:08:48;;;;;;;8.20;4.47;;;24.20;65.30;;;;;;5066589;28;20912;-83
2022/05/09 06:11:15;;;;;;;6.73;3.70;;;24.30;64.00;;;;;;5067500;28;20473;-83
2022/05/09 06:13:42;;;;;;;10.10;5.20;;;24.10;63.80;;;;;;5067290;28;20484;-82
2022/05/09 06:16:09;;;;;;;10.70;4.90;;;24.50;64.10;;;;;;5074528;28;20509;-80
2022/05/09 06:18:36;;;;;;;7.50;5.43;;;25.00;61.90;;;;;;5073403;28;20470;-83
2022/05/09 06:21:03;;;;;;;7.50;4.00;;;25.40;60.30;;;;;;5082941;28;20531;-82
2022/05/09 06:23:30;;;;;;;8.73;4.70;;;25.40;59.60;;;;;;5069411;28;20465;-83
2022/05/09 06:26:00;;;;;;;14.40;4.43;;;25.70;59.10;;;;;;5066628;28;20466;-83
2022/05/09 06:28:27;;;;;;;8.50;4.40;;;25.80;58.30;;;;;;5064776;28;20469;-82
2022/05/09 06:30:53;;;;;;;7.97;3.40;;;26.10;57.90;;;;;;5063930;28;20445;-82
2022/05/09 06:33:23;;;;;;;7.67;3.67;;;26.00;57.40;;;;;;5063710;28;20987;-81
2022/05/09 06:35:50;;;;;;;10.93;4.30;;;25.80;57.20;;;;;;5064968;28;20524;-82
2022/05/09 06:38:18;;;;;;;9.60;4.00;;;26.10;56.90;;;;;;5073639;28;20518;-83
2022/05/09 06:40:45;;;;;;;8.77;4.50;;;26.40;56.90;;;;;;5072947;28;20489;-83
2022/05/09 06:43:14;;;;;;;12.70;3.97;;;26.50;56.10;;;;;;5064299;28;20508;-83
2022/05/09 06:45:41;;;;;;;5.40;3.40;;;27.30;55.50;;;;;;5065608;28;20445;-83
2022/05/09 06:48:10;;;;;;;8.73;4.60;;;27.70;54.10;;;;;;5064610;28;20446;-82
2022/05/09 06:50:39;;;;;;;9.47;3.70;;;27.50;53.30;;;;;;5064591;28;20461;-80
2022/05/09 06:53:06;;;;;;;9.10;4.53;;;27.80;53.00;;;;;;5066316;28;20537;-84
2022/05/09 06:55:33;;;;;;;6.20;3.53;;;28.20;52.70;;;;;;5067650;28;20553;-82
2022/05/09 06:58:00;;;;;;;9.60;4.37;;;27.80;52.90;;;;;;5076869;28;20438;-82
2022/05/09 07:00:28;;;;;;;10.90;4.20;;;28.20;52.00;;;;;;5077938;28;20462;-80
2022/05/09 07:02:55;;;;;;;7.37;3.80;;;28.20;52.60;;;;;;5076818;28;21060;-81
2022/05/09 07:05:23;;;;;;;12.20;5.00;;;27.50;51.90;;;;;;5076063;28;20454;-82
2022/05/09 07:07:49;;;;;;;5.50;3.93;;;28.10;52.10;;;;;;5068089;28;20812;-84
2022/05/09 07:10:17;;;;;;;13.43;5.00;;;28.60;51.50;;;;;;5064902;28;20512;-83
2022/05/09 07:12:45;;;;;;;6.03;4.10;;;29.20;50.90;;;;;;5069901;28;20454;-83
2022/05/09 07:15:14;;;;;;;12.97;4.73;;;29.30;49.90;;;;;;5072300;28;20474;-83
2022/05/09 07:17:42;;;;;;;7.23;3.80;;;28.70;49.70;;;;;;5065401;28;20534;-84
2022/05/09 07:20:10;;;;;;;13.77;4.17;;;28.80;50.10;;;;;;5072253;28;20513;-83
2022/05/09 07:22:37;;;;;;;10.20;4.33;;;29.30;50.00;;;;;;5074247;28;20460;-81
2022/05/09 07:25:05;;;;;;;12.03;4.10;;;29.70;48.90;;;;;;5075341;28;20480;-82
2022/05/09 07:27:32;;;;;;;9.20;4.60;;;29.90;49.10;;;;;;5076153;28;20524;-83
2022/05/09 07:29:59;;;;;;;8.63;4.10;;;30.30;48.30;;;;;;5068836;28;20454;-83
2022/05/09 07:32:26;;;;;;;14.43;4.50;;;30.50;47.70;;;;;;5068918;28;20480;-84
2022/05/09 07:34:54;;;;;;;6.57;4.00;;;30.00;47.00;;;;;;5070818;28;20534;-82
2022/05/09 07:37:22;;;;;;;7.53;3.17;;;29.90;48.20;;;;;;5072625;28;20469;-83
2022/05/09 07:39:48;;;;;;;7.40;3.40;;;29.50;47.00;;;;;;5073242;28;20453;-83
2022/05/09 07:42:15;;;;;;;6.90;3.87;;;29.50;47.50;;;;;;5075992;28;20485;-83
2022/05/09 07:44:42;;;;;;;8.40;4.07;;;29.50;47.50;;;;;;5082287;28;20483;-83
2022/05/09 07:47:09;;;;;;;7.20;4.03;;;29.80;47.70;;;;;;5078423;28;20504;-83
2022/05/09 07:49:36;;;;;;;10.90;3.67;;;30.30;47.30;;;;;;5072557;28;20505;-81
2022/05/09 07:52:05;;;;;;;7.63;3.03;;;31.00;46.10;;;;;;5089842;28;20468;-83
2022/05/09 07:54:32;;;;;;;7.07;3.67;;;31.10;45.50;;;;;;5083441;28;20460;-83
2022/05/09 07:56:59;;;;;;;7.33;2.90;;;30.40;45.70;;;;;;5077404;28;20462;-85
2022/05/09 07:59:26;;;;;;;9.10;3.90;;;30.70;46.10;;;;;;5060126;28;20441;-81
2022/05/09 08:01:53;;;;;;;6.80;3.17;;;31.30;45.30;;;;;;5079353;28;20469;-82
2022/05/09 08:04:20;;;;;;;5.90;3.33;;;31.30;44.50;;;;;;5079163;28;20444;-82
2022/05/09 08:06:47;;;;;;;9.30;3.87;;;31.50;44.00;;;;;;5068806;28;20502;-83
2022/05/09 08:09:15;;;;;;;6.70;2.83;;;31.20;43.90;;;;;;5069217;28;20911;-82
2022/05/09 08:11:44;;;;;;;10.17;4.30;;;31.10;44.20;;;;;;5073028;28;20441;-83
2022/05/09 08:14:11;;;;;;;10.77;3.07;;;30.90;44.40;;;;;;5068425;28;20450;-82
2022/05/09 08:16:39;;;;;;;7.93;2.97;;;30.10;45.20;;;;;;5065129;28;20473;-82
2022/05/09 08:19:06;;;;;;;7.80;3.80;;;29.30;45.60;;;;;;5081741;28;20453;-80
2022/05/09 08:21:33;;;;;;;8.40;3.17;;;30.00;46.30;;;;;;5079215;28;20567;-81
2022/05/09 08:24:00;;;;;;;5.70;3.63;;;30.20;45.20;;;;;;5079982;28;20445;-81
2022/05/09 08:26:28;;;;;;;7.93;3.80;;;30.10;44.10;;;;;;5083791;28;20640;-81
2022/05/09 08:28:56;;;;;;;10.07;3.10;;;29.60;44.60;;;;;;5081796;28;20450;-82
2022/05/09 08:31:23;;;;;;;5.60;3.00;;;29.20;43.90;;;;;;5081761;28;20453;-81
2022/05/09 08:33:52;;;;;;;8.03;3.10;;;29.40;45.10;;;;;;5086909;28;20689;-81
2022/05/09 08:39:01;;;;;;;6.23;2.90;;;30.60;43.10;;;;;;5079645;28;20456;-80
2022/05/09 08:41:33;;;;;;;7.13;2.40;;;30.80;44.30;;;;;;5086146;28;20437;-81
2022/05/09 08:44:17;;;;;;;15.07;3.37;;;31.10;42.10;;;;;;5079014;28;20430;-81
2022/05/09 08:46:53;;;;;;;4.10;2.97;;;30.40;43.30;;;;;;5077600;28;20458;-81
2022/05/09 08:49:33;;;;;;;6.70;2.80;;;30.10;44.40;;;;;;5069383;28;20438;-83
2022/05/09 08:52:12;;;;;;;7.63;2.93;;;30.10;44.50;;;;;;5067724;28;20438;-83
2022/05/09 08:54:39;;;;;;;12.13;3.37;;;30.40;43.50;;;;;;5083515;28;20452;-82
2022/05/09 08:57:13;;;;;;;5.30;2.90;;;30.50;43.30;;;;;;5069511;28;20525;-83
2022/05/09 08:59:46;;;;;;;6.77;3.20;;;30.30;41.90;;;;;;5074662;28;20503;-83
2022/05/09 09:02:15;;;;;;;7.27;3.17;;;30.40;41.80;;;;;;5085663;28;20809;-83
2022/05/09 09:04:49;;;;;;;3.90;2.60;;;30.30;42.30;;;;;;5085817;28;20480;-83
2022/05/09 09:07:36;;;;;;;8.93;3.47;;;30.70;42.60;;;;;;5071199;28;20476;-81
2022/05/09 09:10:14;;;;;;;9.13;3.37;;;30.30;43.00;;;;;;5068232;28;20457;-82
2022/05/09 09:12:52;;;;;;;6.10;3.27;;;29.80;43.40;;;;;;5073381;28;20442;-83
2022/05/09 09:15:31;;;;;;;7.33;2.90;;;29.90;44.10;;;;;;5066797;28;20474;-83
2022/05/09 09:18:12;;;;;;;8.17;2.93;;;30.30;43.50;;;;;;5066873;28;20847;-81
2022/05/09 09:20:54;;;;;;;5.50;3.67;;;30.20;42.80;;;;;;5070773;28;20457;-83
2022/05/09 09:23:53;;;;;;;5.03;2.43;;;30.00;43.60;;;;;;5070560;28;20445;-83
2022/05/09 09:26:31;;;;;;;6.33;2.60;;;30.00;43.40;;;;;;5061004;28;20995;-83
2022/05/09 09:29:05;;;;;;;7.23;3.40;;;30.60;43.30;;;;;;5066234;28;20469;-82
2022/05/09 09:31:37;;;;;;;6.77;3.47;;;30.80;42.30;;;;;;5065235;28;21010;-81
2022/05/09 09:34:14;;;;;;;5.07;1.90;;;30.90;42.60;;;;;;5069541;28;20442;-84
2022/05/09 09:36:49;;;;;;;4.97;2.60;;;30.30;41.70;;;;;;5065118;28;20588;-81
2022/05/09 09:39:19;;;;;;;5.63;2.90;;;30.00;42.10;;;;;;5065707;28;20437;-83
2022/05/09 09:41:47;;;;;;;4.63;2.73;;;28.80;42.30;;;;;;5078290;28;20469;-81
2022/05/09 09:44:17;;;;;;;6.70;2.90;;;29.10;41.90;;;;;;5072989;28;20473;-81
2022/05/09 09:47:07;;;;;;;7.60;3.03;;;28.90;41.60;;;;;;5072184;28;20522;-82
2022/05/09 09:49:35;;;;;;;6.60;3.10;;;29.00;41.40;;;;;;5064110;28;20549;-82
2022/05/09 09:52:04;;;;;;;5.10;2.70;;;28.80;42.10;;;;;;5078051;28;20470;-82
2022/05/09 09:54:35;;;;;;;5.27;2.53;;;28.80;41.40;;;;;;5069638;28;20498;-83
2022/05/09 09:57:18;;;;;;;4.80;3.07;;;28.80;41.50;;;;;;5073082;28;20497;-83
2022/05/09 09:59:47;;;;;;;5.87;2.60;;;29.10;41.40;;;;;;5068629;28;20454;-83
2022/05/09 10:02:17;;;;;;;4.70;2.77;;;29.30;41.40;;;;;;5079112;28;20473;-83
2022/05/09 10:04:44;;;;;;;9.27;2.77;;;29.50;40.80;;;;;;5075166;28;20442;-83
2022/05/09 10:07:16;;;;;;;6.10;2.47;;;28.90;39.80;;;;;;5080044;28;20554;-82
2022/05/09 10:09:45;;;;;;;9.23;3.07;;;28.80;41.40;;;;;;5065739;28;20470;-82
2022/05/09 10:12:22;;;;;;;8.87;2.13;;;28.70;40.60;;;;;;5073622;28;20433;-81
2022/05/09 10:14:51;;;;;;;7.27;2.73;;;28.80;40.50;;;;;;5072583;28;20446;-80
2022/05/09 10:17:28;;;;;;;4.50;2.40;;;28.80;40.30;;;;;;5076755;28;20481;-81
2022/05/09 10:19:56;;;;;;;7.53;2.77;;;29.00;40.30;;;;;;5064026;28;20433;-80
2022/05/09 10:25:22;;;;;;;6.07;3.27;;;27.90;41.10;;;;;;5024793;28;20428;-80
2022/05/09 10:28:05;;;;;;;6.00;3.00;;;27.70;41.80;;;;;;5067911;28;20477;-80
2022/05/09 10:30:37;;;;;;;7.77;2.57;;;27.80;41.90;;;;;;5067187;28;20462;-80
2022/05/09 10:33:12;;;;;;;8.23;3.30;;;27.80;41.80;;;;;;5074472;28;20486;-80
2022/05/09 10:35:44;;;;;;;5.70;2.90;;;27.30;42.30;;;;;;5068066;28;20467;-80
2022/05/09 10:38:16;;;;;;;6.07;2.70;;;26.70;42.70;;;;;;5077172;28;20457;-80
2022/05/09 10:40:47;;;;;;;8.47;3.03;;;26.10;44.00;;;;;;5082018;28;20438;-79
2022/05/09 10:43:19;;;;;;;5.20;2.60;;;25.30;44.20;;;;;;5077146;28;20433;-81
2022/05/09 10:45:50;;;;;;;10.57;3.57;;;24.90;44.50;;;;;;5078441;28;20461;-84
2022/05/09 10:48:25;;;;;;;5.33;2.20;;;24.40;44.50;;;;;;5062182;28;20500;-82
2022/05/09 10:50:57;;;;;;;14.77;3.20;;;24.30;44.70;;;;;;5060647;28;20450;-83
2022/05/09 10:53:35;;;;;;;4.37;2.50;;;24.20;45.70;;;;;;5067549;28;20510;-81
2022/05/09 10:56:07;;;;;;;4.90;2.53;;;24.10;45.90;;;;;;5085562;28;20592;-83
2022/05/09 10:58:41;;;;;;;8.50;3.00;;;24.00;46.00;;;;;;5071939;28;20451;-82
2022/05/09 11:01:16;;;;;;;8.13;2.50;;;23.70;45.70;;;;;;5081897;28;20476;-82
2022/05/09 11:03:44;;;;;;;6.10;2.57;;;23.60;46.00;;;;;;5064339;28;20480;-81
2022/05/09 11:06:25;;;;;;;8.20;2.50;;;23.70;46.20;;;;;;5072883;28;20552;-82
2022/05/09 11:09:19;;;;;;;8.13;2.77;;;23.90;46.30;;;;;;5071935;28;20469;-81
2022/05/09 11:11:56;;;;;;;6.60;3.10;;;23.40;46.60;;;;;;5069904;28;20450;-81
2022/05/09 11:14:33;;;;;;;4.83;2.27;;;23.30;47.50;;;;;;5066122;28;20497;-81
2022/05/09 11:17:18;;;;;;;6.17;3.00;;;23.40;47.20;;;;;;5068394;28;20485;-83
2022/05/09 11:20:03;;;;;;;7.50;2.57;;;23.20;47.60;;;;;;5069943;28;20445;-81
2022/05/09 11:22:35;;;;;;;4.87;2.87;;;23.30;47.10;;;;;;5063644;28;20465;-83
2022/05/09 11:25:15;;;;;;;8.83;2.63;;;23.40;47.20;;;;;;5072780;28;20461;-83
2022/05/09 11:27:52;;;;;;;6.23;2.43;;;23.50;47.40;;;;;;5078089;28;20801;-82
2022/05/09 11:30:27;;;;;;;5.00;2.43;;;23.30;47.50;;;;;;5065722;28;20493;-83
2022/05/09 11:33:07;;;;;;;6.37;3.00;;;23.20;47.50;;;;;;5066422;28;20456;-82
2022/05/09 11:35:36;;;;;;;8.67;2.43;;;23.30;48.20;;;;;;5062381;28;20455;-83
2022/05/09 11:38:32;;;;;;;5.07;2.20;;;23.30;47.60;;;;;;5069374;28;20528;-82
2022/05/09 11:41:11;;;;;;;5.67;2.20;;;23.30;48.30;;;;;;5060385;28;20515;-83
2022/05/09 11:43:56;;;;;;;6.47;2.90;;;23.60;48.30;;;;;;5052492;28;20624;-82
2022/05/09 11:46:38;;;;;;;6.20;2.90;;;23.40;47.90;;;;;;5059142;28;20548;-83
2022/05/09 11:49:23;;;;;;;7.70;2.57;;;23.50;47.70;;;;;;5067962;28;20449;-83
2022/05/09 11:51:53;;;;;;;4.83;1.90;;;23.70;47.80;;;;;;5073014;28;20453;-83
2022/05/09 11:54:23;;;;;;;6.97;2.77;;;23.50;48.00;;;;;;5064791;28;20622;-83
2022/05/09 11:56:53;;;;;;;6.47;2.70;;;23.30;48.10;;;;;;5065548;28;20482;-83
2022/05/09 11:59:23;;;;;;;6.70;2.73;;;23.20;48.70;;;;;;5058083;28;20457;-84
2022/05/09 12:02:03;;;;;;;3.37;2.30;;;22.90;48.80;;;;;;5060859;28;20518;-83
2022/05/09 12:04:35;;;;;;;14.60;2.50;;;23.00;49.00;;;;;;5063880;28;20458;-82
2022/05/09 12:07:36;;;;;;;3.47;2.20;;;23.00;49.20;;;;;;5062717;28;20484;-83
2022/05/09 12:10:15;;;;;;;4.80;2.40;;;22.90;48.90;;;;;;5071119;28;20448;-82
2022/05/09 12:12:49;;;;;;;5.13;2.30;;;22.90;49.50;;;;;;5065895;28;20448;-82
2022/05/09 12:15:54;;;;;;;5.23;2.20;;;22.90;49.70;;;;;;5079095;28;20437;-82
2022/05/09 12:18:27;;;;;;;5.13;2.40;;;23.10;50.50;;;;;;5054454;28;20526;-83
2022/05/09 12:21:21;;;;;;;6.57;2.30;;;23.00;49.70;;;;;;5061224;28;20501;-83
2022/05/09 12:24:31;;;;;;;2.73;1.77;;;23.00;50.30;;;;;;5067461;28;20438;-83
2022/05/09 12:27:00;;;;;;;4.07;1.97;;;23.10;50.00;;;;;;5065443;28;20572;-83
2022/05/09 12:29:51;;;;;;;7.47;2.77;;;23.20;50.20;;;;;;5074925;28;20504;-83
2022/05/09 12:32:19;;;;;;;3.50;1.90;;;23.20;50.60;;;;;;5064292;28;20441;-82
2022/05/09 12:34:47;;;;;;;3.00;2.17;;;23.30;51.20;;;;;;5068414;28;20915;-82
2022/05/09 12:37:22;;;;;;;5.43;1.90;;;23.20;51.10;;;;;;5068020;28;20486;-84
2022/05/09 12:39:54;;;;;;;3.63;1.50;;;23.30;51.30;;;;;;5068544;28;20442;-84
2022/05/09 12:42:40;;;;;;;8.80;2.70;;;23.40;51.50;;;;;;5075230;28;20513;-82
2022/05/09 12:45:08;;;;;;;4.60;2.00;;;23.40;51.40;;;;;;5074144;28;20744;-83
2022/05/09 12:47:37;;;;;;;7.70;1.73;;;23.40;51.20;;;;;;5078375;28;20477;-80
2022/05/09 12:50:08;;;;;;;3.13;2.70;;;23.40;51.40;;;;;;5084007;28;20524;-81
2022/05/09 12:52:40;;;;;;;3.27;1.60;;;23.40;51.60;;;;;;5078618;28;20461;-81
2022/05/09 12:57:52;;;;;;;5.37;2.10;;;23.30;51.30;;;;;;5078208;28;20528;-82
2022/05/09 13:00:23;;;;;;;6.47;2.77;;;23.20;51.60;;;;;;5077460;28;20839;-81
2022/05/09 13:02:50;;;;;;;7.70;2.20;;;23.10;51.90;;;;;;5075937;28;20468;-82
2022/05/09 13:05:18;;;;;;;5.00;2.67;;;23.00;52.10;;;;;;5073300;28;20438;-82
2022/05/09 13:07:56;;;;;;;8.90;3.50;;;23.10;52.50;;;;;;5074331;28;20466;-83
2022/05/09 13:10:23;;;;;;;5.53;2.30;;;23.20;52.40;;;;;;5078646;28;20476;-83
2022/05/09 13:12:56;;;;;;;3.87;2.13;;;23.40;52.70;;;;;;5077572;28;20454;-83
2022/05/09 13:15:23;;;;;;;6.10;3.27;;;23.30;52.50;;;;;;5075648;28;20458;-84
2022/05/09 13:17:57;;;;;;;5.67;2.20;;;23.40;52.50;;;;;;5068794;28;20477;-84
2022/05/09 13:20:27;;;;;;;6.87;4.30;;;23.30;52.30;;;;;;5062299;28;20434;-83